Time;durP1;ratioP1;P1;durP2;ratioP2;P2;SDS_P1;SDS_P2;PMS_P1;PMS_P2;Temp;Humidity;BMP_temperature;BMP_pressure;BME280_temperature;BME280_humidity;BME280_pressure;Samples;Min_cycle;Max_cycle;Signal;HPM_P1;HPM_P2
2024/04/12 00:00:57;;;;;;;39.15;35.08;;;;;;;;;;5359955;26;20112;-47
2024/04/12 00:03:23;;;;;;;40.50;36.13;;;;;;;;;;5360083;26;20107;-44
2024/04/12 00:05:50;;;;;;;38.08;34.42;;;;;;;;;;5360978;26;20119;-44
2024/04/12 00:08:18;;;;;;;40.22;36.03;;;;;;;;;;5361129;26;20004;-36
2024/04/12 00:10:45;;;;;;;41.25;36.15;;;;;;;;;;5362567;26;20213;-41
2024/04/12 00:13:12;;;;;;;42.28;37.80;;;;;;;;;;5362026;26;20004;-42
2024/04/12 00:15:38;;;;;;;42.38;37.88;;;;;;;;;;5361997;26;20025;-39
2024/04/12 00:18:06;;;;;;;44.33;37.88;;;;;;;;;;5361860;26;20001;-38
2024/04/12 00:20:32;;;;;;;42.30;37.28;;;;;;;;;;5362262;26;19989;-38
2024/04/12 00:23:02;;;;;;;42.38;37.83;;;;;;;;;;5361802;26;20081;-37
2024/04/12 00:25:30;;;;;;;38.88;34.97;;;;;;;;;;5361588;26;20000;-41
2024/04/12 00:27:57;;;;;;;48.30;37.35;;;;;;;;;;5362113;26;20000;-37
2024/04/12 00:30:41;;;;;;;41.20;37.03;;;;;;;;;;5362018;26;20181;-40
2024/04/12 00:33:11;;;;;;;42.33;38.10;;;;;;;;;;5361775;26;19996;-41
2024/04/12 00:35:49;;;;;;;40.72;36.60;;;;;;;;;;5361417;26;19989;-43
2024/04/12 00:38:16;;;;;;;41.13;36.88;;;;;;;;;;5361845;26;19992;-39
2024/04/12 00:40:46;;;;;;;40.85;36.53;;;;;;;;;;5361878;26;19989;-41
2024/04/12 00:43:20;;;;;;;40.67;36.47;;;;;;;;;;5362083;26;20000;-46
2024/04/12 00:45:54;;;;;;;41.38;37.40;;;;;;;;;;5362127;26;20001;-38
2024/04/12 00:48:26;;;;;;;42.20;37.80;;;;;;;;;;5362104;26;19985;-39
2024/04/12 00:50:53;;;;;;;41.97;37.53;;;;;;;;;;5361670;26;20017;-41
2024/04/12 00:53:22;;;;;;;40.47;36.58;;;;;;;;;;5361690;26;19992;-41
2024/04/12 00:56:03;;;;;;;43.75;39.05;;;;;;;;;;5361852;26;20046;-38
2024/04/12 00:58:33;;;;;;;42.83;38.13;;;;;;;;;;5361984;26;19988;-43
2024/04/12 01:01:15;;;;;;;41.45;37.25;;;;;;;;;;5361284;26;19989;-39
2024/04/12 01:03:45;;;;;;;;;;;;;;;;;;5362123;26;20005;-40
2024/04/12 01:06:24;;;;;;;41.90;37.53;;;;;;;;;;5360789;26;20070;-37
2024/04/12 01:08:52;;;;;;;41.42;37.38;;;;;;;;;;5361439;26;20212;-42
2024/04/12 01:11:22;;;;;;;41.53;37.17;;;;;;;;;;5360825;26;19993;-40
2024/04/12 01:13:49;;;;;;;40.67;36.25;;;;;;;;;;5361564;26;20051;-37
2024/04/12 01:16:16;;;;;;;41.42;37.45;;;;;;;;;;5361054;26;19989;-40
2024/04/12 01:18:42;;;;;;;40.75;36.47;;;;;;;;;;5359568;26;19989;-37
2024/04/12 01:21:12;;;;;;;41.03;36.30;;;;;;;;;;5361447;26;20017;-38
2024/04/12 01:23:48;;;;;;;40.40;36.30;;;;;;;;;;5361727;26;19996;-37
2024/04/12 01:26:17;;;;;;;45.67;36.60;;;;;;;;;;5360708;26;20016;-41
2024/04/12 01:28:44;;;;;;;41.28;36.90;;;;;;;;;;5360866;26;20082;-39
2024/04/12 01:31:17;;;;;;;40.17;36.20;;;;;;;;;;5360627;26;20000;-38
2024/04/12 01:33:48;;;;;;;40.72;36.60;;;;;;;;;;5360626;26;19985;-40
2024/04/12 01:36:18;;;;;;;40.83;36.70;;;;;;;;;;5360757;26;20074;-39
2024/04/12 01:38:53;;;;;;;39.35;35.55;;;;;;;;;;5360736;26;20028;-37
2024/04/12 01:41:38;;;;;;;40.22;36.05;;;;;;;;;;5360762;26;20098;-36
2024/04/12 01:44:06;;;;;;;40.45;36.35;;;;;;;;;;5390247;26;20240;-46
2024/04/12 01:46:34;;;;;;;40.50;36.53;;;;;;;;;;5396852;26;19994;-42
2024/04/12 01:49:01;;;;;;;40.47;36.15;;;;;;;;;;5425318;26;19992;-35
2024/04/12 01:51:30;;;;;;;39.25;35.38;;;;;;;;;;5394294;26;20000;-46
2024/04/12 01:53:57;;;;;;;39.22;35.38;;;;;;;;;;5430274;26;20003;-45
2024/04/12 01:56:24;;;;;;;41.25;36.90;;;;;;;;;;5423584;26;19992;-40
2024/04/12 01:58:51;;;;;;;39.53;35.75;;;;;;;;;;5404480;26;19992;-42
2024/04/12 02:01:19;;;;;;;38.63;35.03;;;;;;;;;;5405451;26;19992;-43
2024/04/12 02:03:47;;;;;;;39.97;36.17;;;;;;;;;;5408090;26;20045;-42
2024/04/12 02:06:17;;;;;;;39.42;35.60;;;;;;;;;;5378708;26;20029;-39
2024/04/12 02:08:44;;;;;;;39.55;35.22;;;;;;;;;;5359747;26;20205;-47
2024/04/12 02:11:11;;;;;;;38.88;35.05;;;;;;;;;;5359566;26;19989;-46
2024/04/12 02:13:39;;;;;;;39.50;35.70;;;;;;;;;;5359832;26;19993;-40
2024/04/12 02:16:06;;;;;;;47.55;35.55;;;;;;;;;;5392931;26;20128;-36
2024/04/12 02:18:33;;;;;;;40.30;35.83;;;;;;;;;;5394411;26;20012;-43
2024/04/12 02:21:06;;;;;;;39.13;35.00;;;;;;;;;;5399773;26;20039;-45
2024/04/12 02:23:33;;;;;;;40.08;35.65;;;;;;;;;;5418468;26;20007;-39
2024/04/12 02:26:01;;;;;;;38.75;34.75;;;;;;;;;;5398005;26;20003;-39
2024/04/12 02:28:28;;;;;;;38.40;34.70;;;;;;;;;;5393725;26;20007;-37
2024/04/12 02:30:57;;;;;;;38.03;34.10;;;;;;;;;;5381962;26;20000;-37
2024/04/12 02:33:30;;;;;;;39.40;35.65;;;;;;;;;;5381833;26;19989;-40
2024/04/12 02:36:00;;;;;;;39.17;35.42;;;;;;;;;;5362664;26;20110;-37
2024/04/12 02:38:28;;;;;;;36.97;33.17;;;;;;;;;;5362374;26;19988;-41
2024/04/12 02:40:58;;;;;;;38.95;35.25;;;;;;;;;;5362389;26;20001;-43
2024/04/12 02:43:25;;;;;;;38.78;34.97;;;;;;;;;;5362453;26;20034;-39
2024/04/12 02:45:52;;;;;;;39.33;34.72;;;;;;;;;;5362547;26;19989;-42
2024/04/12 02:48:22;;;;;;;37.97;34.33;;;;;;;;;;5374155;26;19996;-41
2024/04/12 02:50:53;;;;;;;39.15;33.97;;;;;;;;;;5397581;26;20027;-38
2024/04/12 02:53:23;;;;;;;35.80;32.50;;;;;;;;;;5397526;26;19988;-46
2024/04/12 02:56:03;;;;;;;36.60;33.13;;;;;;;;;;5397569;26;19999;-42
2024/04/12 02:58:29;;;;;;;38.40;34.53;;;;;;;;;;5397639;26;19992;-45
2024/04/12 03:00:59;;;;;;;38.03;34.45;;;;;;;;;;5397461;26;20194;-40
2024/04/12 03:03:26;;;;;;;39.05;35.13;;;;;;;;;;5397552;26;20030;-43
2024/04/12 03:06:02;;;;;;;37.40;33.88;;;;;;;;;;5397340;26;19993;-41
2024/04/12 03:08:32;;;;;;;38.47;34.75;;;;;;;;;;5388705;26;20016;-41
2024/04/12 03:11:13;;;;;;;37.70;34.10;;;;;;;;;;5384732;26;19999;-39
2024/04/12 03:13:40;;;;;;;37.10;33.43;;;;;;;;;;5397419;26;19992;-38
2024/04/12 03:16:13;;;;;;;37.63;33.95;;;;;;;;;;5397342;26;19989;-37
2024/04/12 03:18:44;;;;;;;37.70;34.00;;;;;;;;;;5397074;26;19992;-43
2024/04/12 03:21:21;;;;;;;37.05;33.40;;;;;;;;;;5397228;26;19989;-38
2024/04/12 03:23:48;;;;;;;37.20;33.65;;;;;;;;;;5397118;26;20027;-40
2024/04/12 03:26:15;;;;;;;36.55;33.17;;;;;;;;;;5397065;26;20003;-42
2024/04/12 03:28:42;;;;;;;36.88;33.30;;;;;;;;;;5397292;26;20090;-45
2024/04/12 03:31:09;;;;;;;36.83;33.47;;;;;;;;;;5397087;26;19992;-38
2024/04/12 03:33:42;;;;;;;37.22;33.65;;;;;;;;;;5397051;26;20349;-43
2024/04/12 03:42:08;;;;;;;36.20;32.72;;;;;;;;;;5395660;26;19929;-40
2024/04/12 03:44:36;;;;;;;37.25;33.70;;;;;;;;;;5397088;26;20045;-39
2024/04/12 03:47:13;;;;;;;36.17;32.55;;;;;;;;;;5396686;26;19988;-42
2024/04/12 03:49:40;;;;;;;35.55;32.30;;;;;;;;;;5393198;26;20049;-36
2024/04/12 03:52:14;;;;;;;35.70;32.17;;;;;;;;;;5379752;26;20102;-38
2024/04/12 03:54:42;;;;;;;35.28;32.00;;;;;;;;;;5361828;26;20109;-43
2024/04/12 03:57:09;;;;;;;34.40;31.17;;;;;;;;;;5377257;26;20027;-40
2024/04/12 03:59:36;;;;;;;35.17;31.88;;;;;;;;;;5365472;26;20004;-42
2024/04/12 04:02:07;;;;;;;35.38;31.88;;;;;;;;;;5361718;26;20005;-39
2024/04/12 04:04:37;;;;;;;35.90;32.45;;;;;;;;;;5361809;26;20198;-42
2024/04/12 04:07:10;;;;;;;35.30;32.00;;;;;;;;;;5361417;26;20140;-41
2024/04/12 04:09:38;;;;;;;34.55;31.27;;;;;;;;;;5361603;26;19996;-37
2024/04/12 04:12:05;;;;;;;34.05;30.75;;;;;;;;;;5361545;26;19992;-37
2024/04/12 04:14:33;;;;;;;34.05;30.65;;;;;;;;;;5361488;26;19992;-39
2024/04/12 04:17:03;;;;;;;34.45;30.83;;;;;;;;;;5361410;26;19993;-37
2024/04/12 04:19:31;;;;;;;34.95;31.42;;;;;;;;;;5361511;26;19985;-45
2024/04/12 04:22:04;;;;;;;34.33;30.80;;;;;;;;;;5361282;26;20013;-38
2024/04/12 04:24:33;;;;;;;33.90;30.45;;;;;;;;;;5361351;26;20013;-40
2024/04/12 04:27:00;;;;;;;33.88;30.58;;;;;;;;;;5361283;26;20025;-40
2024/04/12 04:29:27;;;;;;;33.05;29.85;;;;;;;;;;5361569;26;20094;-44
2024/04/12 04:31:54;;;;;;;33.72;30.25;;;;;;;;;;5361467;26;20013;-38
2024/04/12 04:34:22;;;;;;;32.67;29.65;;;;;;;;;;5381165;26;19999;-45
2024/04/12 04:36:49;;;;;;;32.10;29.23;;;;;;;;;;5360967;26;19992;-41
2024/04/12 04:39:21;;;;;;;32.72;29.52;;;;;;;;;;5361178;26;20189;-44
2024/04/12 04:41:50;;;;;;;32.67;29.40;;;;;;;;;;5361081;26;19985;-39
2024/04/12 04:44:16;;;;;;;32.72;29.23;;;;;;;;;;5361136;26;20201;-46
2024/04/12 04:46:47;;;;;;;31.42;28.35;;;;;;;;;;5361030;26;20005;-41
2024/04/12 04:49:17;;;;;;;32.05;28.95;;;;;;;;;;5360778;26;19985;-39
2024/04/12 04:51:48;;;;;;;30.95;27.98;;;;;;;;;;5360943;26;19995;-42
2024/04/12 04:54:16;;;;;;;31.20;28.15;;;;;;;;;;5360614;26;19981;-40
2024/04/12 04:56:43;;;;;;;32.03;28.83;;;;;;;;;;5360303;26;20021;-45
2024/04/12 04:59:16;;;;;;;31.30;28.23;;;;;;;;;;5360823;26;20001;-40
2024/04/12 05:01:48;;;;;;;32.17;29.00;;;;;;;;;;5360636;26;19985;-38
2024/04/12 05:04:20;;;;;;;30.88;27.80;;;;;;;;;;5360895;26;19985;-44
2024/04/12 05:06:53;;;;;;;30.58;27.58;;;;;;;;;;5360219;26;20248;-41
2024/04/12 05:09:23;;;;;;;30.83;27.83;;;;;;;;;;5360544;26;19993;-39
2024/04/12 05:11:50;;;;;;;29.77;26.98;;;;;;;;;;5360653;26;19997;-41
2024/04/12 05:17:05;;;;;;;30.23;27.27;;;;;;;;;;5361001;26;19996;-37
2024/04/12 05:19:32;;;;;;;30.00;27.17;;;;;;;;;;5360853;26;19985;-36
2024/04/12 05:22:06;;;;;;;29.35;26.45;;;;;;;;;;5360753;26;19989;-38
2024/04/12 05:24:35;;;;;;;28.55;26.05;;;;;;;;;;5360594;26;19988;-40
2024/04/12 05:27:04;;;;;;;29.42;26.33;;;;;;;;;;5360363;26;20000;-37
2024/04/12 05:29:31;;;;;;;29.98;27.00;;;;;;;;;;5360461;26;20001;-40
2024/04/12 05:32:01;;;;;;;28.55;25.80;;;;;;;;;;5360476;26;20165;-44
2024/04/12 05:34:28;;;;;;;28.35;25.50;;;;;;;;;;5360261;26;19991;-41
2024/04/12 05:36:59;;;;;;;28.17;25.50;;;;;;;;;;5360243;26;19988;-41
2024/04/12 05:39:26;;;;;;;27.63;25.00;;;;;;;;;;5360385;26;19985;-35
2024/04/12 05:41:53;;;;;;;27.40;24.90;;;;;;;;;;5360223;26;20047;-37
2024/04/12 05:44:26;;;;;;;26.75;24.15;;;;;;;;;;5360521;26;19989;-38
2024/04/12 05:46:53;;;;;;;26.90;24.17;;;;;;;;;;5360186;26;19992;-40
2024/04/12 05:49:20;;;;;;;26.80;24.13;;;;;;;;;;5360103;26;20186;-38
2024/04/12 05:51:49;;;;;;;26.35;23.75;;;;;;;;;;5359857;26;20017;-45
2024/04/12 05:54:16;;;;;;;26.58;24.08;;;;;;;;;;5372293;26;20046;-42
2024/04/12 05:56:46;;;;;;;26.40;23.77;;;;;;;;;;5388226;26;19992;-45
2024/04/12 05:59:13;;;;;;;26.67;24.17;;;;;;;;;;5395110;26;20012;-37
2024/04/12 06:01:46;;;;;;;26.30;23.90;;;;;;;;;;5394909;26;19984;-46
2024/04/12 06:04:19;;;;;;;26.33;23.73;;;;;;;;;;5394593;26;20000;-38
2024/04/12 06:06:49;;;;;;;27.08;24.55;;;;;;;;;;5394479;26;20030;-40
2024/04/12 06:09:20;;;;;;;25.65;23.35;;;;;;;;;;5394745;26;19988;-42
2024/04/12 06:11:56;;;;;;;24.90;22.58;;;;;;;;;;5394856;26;19988;-41
2024/04/12 06:14:26;;;;;;;26.23;23.75;;;;;;;;;;5394597;26;20212;-42
2024/04/12 06:16:57;;;;;;;26.77;24.25;;;;;;;;;;5394633;26;19984;-37
2024/04/12 06:19:24;;;;;;;26.17;23.58;;;;;;;;;;5394732;26;20104;-37
2024/04/12 06:21:51;;;;;;;25.08;22.77;;;;;;;;;;5394595;26;20213;-40
2024/04/12 06:24:26;;;;;;;25.73;23.42;;;;;;;;;;5394842;26;20008;-36
2024/04/12 06:26:54;;;;;;;24.85;22.58;;;;;;;;;;5394737;26;19998;-44
2024/04/12 06:29:22;;;;;;;25.55;23.00;;;;;;;;;;5394871;26;20012;-36
2024/04/12 06:31:53;;;;;;;25.10;22.60;;;;;;;;;;5395023;26;19993;-36
2024/04/12 06:34:21;;;;;;;25.05;22.27;;;;;;;;;;5394650;26;20013;-39
2024/04/12 06:36:55;;;;;;;24.38;22.08;;;;;;;;;;5394820;26;20016;-39
2024/04/12 06:39:26;;;;;;;24.45;22.23;;;;;;;;;;5394612;26;19988;-42
2024/04/12 06:41:55;;;;;;;24.80;22.42;;;;;;;;;;5394369;26;20197;-46
2024/04/12 06:44:22;;;;;;;24.98;22.48;;;;;;;;;;5394584;26;20090;-46
2024/04/12 06:46:49;;;;;;;25.05;22.50;;;;;;;;;;5394609;26;20239;-46
2024/04/12 06:49:16;;;;;;;24.90;22.40;;;;;;;;;;5394353;26;19984;-44
2024/04/12 06:54:35;;;;;;;26.05;23.48;;;;;;;;;;5394285;26;20081;-43
2024/04/12 06:57:04;;;;;;;24.92;22.48;;;;;;;;;;5394122;26;20147;-38
2024/04/12 06:59:40;;;;;;;25.23;22.73;;;;;;;;;;5394437;26;19980;-41
2024/04/12 07:02:08;;;;;;;25.33;22.95;;;;;;;;;;5394447;26;19992;-37
2024/04/12 07:04:38;;;;;;;24.85;22.55;;;;;;;;;;5394403;26;19998;-38
2024/04/12 07:07:05;;;;;;;25.63;23.30;;;;;;;;;;5393900;26;19988;-38
2024/04/12 07:09:32;;;;;;;26.13;23.50;;;;;;;;;;5394479;26;20003;-42
2024/04/12 07:12:05;;;;;;;26.15;23.85;;;;;;;;;;5394009;26;19985;-37
2024/04/12 07:14:36;;;;;;;25.83;23.15;;;;;;;;;;5393841;26;19992;-39
2024/04/12 07:17:19;;;;;;;26.58;23.83;;;;;;;;;;5396011;26;20050;-37
2024/04/12 07:19:49;;;;;;;26.00;23.63;;;;;;;;;;5397630;26;19988;-38
2024/04/12 07:22:23;;;;;;;25.50;22.95;;;;;;;;;;5397694;26;20077;-40
2024/04/12 07:24:50;;;;;;;25.70;23.25;;;;;;;;;;5397492;26;20041;-36
2024/04/12 07:27:27;;;;;;;27.25;24.23;;;;;;;;;;5397391;26;20100;-40
2024/04/12 07:29:54;;;;;;;27.40;24.75;;;;;;;;;;5397499;26;19988;-36
2024/04/12 07:32:25;;;;;;;26.10;23.70;;;;;;;;;;5397267;26;20004;-37
2024/04/12 07:34:51;;;;;;;26.90;24.40;;;;;;;;;;5397441;26;20012;-36
2024/04/12 07:37:27;;;;;;;26.85;24.23;;;;;;;;;;5397206;26;20003;-38
2024/04/12 07:40:17;;;;;;;26.40;23.95;;;;;;;;;;5397508;26;19995;-38
2024/04/12 07:42:47;;;;;;;27.65;24.83;;;;;;;;;;5397278;26;19996;-36
2024/04/12 07:45:20;;;;;;;25.77;23.48;;;;;;;;;;5397241;26;19985;-40
2024/04/12 07:47:53;;;;;;;25.58;23.02;;;;;;;;;;5397297;26;19988;-37
2024/04/12 07:50:29;;;;;;;29.10;23.92;;;;;;;;;;5396992;26;19988;-40
2024/04/12 07:56:09;;;;;;;26.02;23.65;;;;;;;;;;5397239;26;20085;-38
2024/04/12 07:58:35;;;;;;;25.40;23.02;;;;;;;;;;5396287;26;20176;-36
2024/04/12 08:01:25;;;;;;;24.65;22.25;;;;;;;;;;5397009;26;20108;-44
2024/04/12 08:04:05;;;;;;;24.88;22.58;;;;;;;;;;5396810;26;19997;-38
2024/04/12 08:09:21;;;;;;;24.27;21.67;;;;;;;;;;5397121;26;20026;-40
2024/04/12 08:11:58;;;;;;;23.70;21.50;;;;;;;;;;5396830;26;19989;-38
2024/04/12 08:14:26;;;;;;;23.17;20.90;;;;;;;;;;5396865;26;20091;-43
2024/04/12 08:17:01;;;;;;;23.80;21.52;;;;;;;;;;5396777;26;19998;-43
2024/04/12 08:19:45;;;;;;;22.63;20.50;;;;;;;;;;5396944;26;19988;-42
2024/04/12 08:22:18;;;;;;;22.70;20.58;;;;;;;;;;5396635;26;20020;-36
2024/04/12 08:24:51;;;;;;;23.67;21.27;;;;;;;;;;5396512;26;19988;-42
2024/04/12 08:27:24;;;;;;;22.55;20.38;;;;;;;;;;5396293;26;20208;-39
2024/04/12 08:29:55;;;;;;;23.15;20.95;;;;;;;;;;5396524;26;20009;-39
2024/04/12 08:32:28;;;;;;;23.67;21.25;;;;;;;;;;5396330;26;19992;-36
2024/04/12 08:34:59;;;;;;;23.85;21.60;;;;;;;;;;5396603;26;20000;-41
2024/04/12 08:37:47;;;;;;;23.20;20.98;;;;;;;;;;5396335;26;20235;-40
2024/04/12 08:40:12;;;;;;;23.08;20.88;;;;;;;;;;5396032;26;20049;-48
2024/04/12 08:42:39;;;;;;;22.85;20.73;;;;;;;;;;5396488;26;19988;-44
2024/04/12 08:45:13;;;;;;;21.60;19.52;;;;;;;;;;5396228;26;19995;-39
2024/04/12 08:47:54;;;;;;;22.83;20.73;;;;;;;;;;5396304;26;19984;-40
2024/04/12 08:50:24;;;;;;;23.08;20.83;;;;;;;;;;5396164;26;19991;-39
2024/04/12 08:52:57;;;;;;;22.10;19.85;;;;;;;;;;5396251;26;20139;-41
2024/04/12 08:55:25;;;;;;;22.63;20.50;;;;;;;;;;5396186;26;19996;-43
2024/04/12 08:57:56;;;;;;;22.45;20.25;;;;;;;;;;5395937;26;20007;-37
2024/04/12 09:00:28;;;;;;;23.00;20.70;;;;;;;;;;5396199;26;19992;-38
2024/04/12 09:03:02;;;;;;;22.25;20.05;;;;;;;;;;5395979;26;20086;-39
2024/04/12 09:05:29;;;;;;;23.88;20.70;;;;;;;;;;5396137;26;19984;-38
2024/04/12 09:07:58;;;;;;;24.25;21.73;;;;;;;;;;5396031;26;19992;-40
2024/04/12 09:10:26;;;;;;;23.05;20.80;;;;;;;;;;5396306;26;20298;-41
2024/04/12 09:12:52;;;;;;;23.60;21.38;;;;;;;;;;5395913;26;19992;-37
2024/04/12 09:15:27;;;;;;;24.05;21.65;;;;;;;;;;5396030;26;19984;-37
2024/04/12 09:18:18;;;;;;;23.63;21.48;;;;;;;;;;5395733;26;19988;-39
2024/04/12 09:20:45;;;;;;;23.63;21.23;;;;;;;;;;5395586;26;20024;-39
2024/04/12 09:23:16;;;;;;;23.77;21.52;;;;;;;;;;5395815;26;19992;-45
2024/04/12 09:25:54;;;;;;;25.38;22.85;;;;;;;;;;5395530;26;20017;-38
2024/04/12 09:28:22;;;;;;;24.60;22.17;;;;;;;;;;5395748;26;20120;-39
2024/04/12 09:33:34;;;;;;;24.73;22.40;;;;;;;;;;5395234;26;20263;-38
2024/04/12 09:36:06;;;;;;;24.95;22.42;;;;;;;;;;5395575;26;19995;-37
2024/04/12 09:38:39;;;;;;;25.67;23.15;;;;;;;;;;5395148;26;19992;-40
2024/04/12 09:41:28;;;;;;;25.25;22.70;;;;;;;;;;5394026;26;19999;-37
2024/04/12 09:44:01;;;;;;;24.80;22.45;;;;;;;;;;5395356;26;19984;-47
2024/04/12 09:47:07;;;;;;;26.23;23.48;;;;;;;;;;5395478;26;19995;-36
2024/04/12 10:39:47;;;;;;;32.65;23.65;;;;;;;;;;5376603;26;20000;-41
2024/04/12 10:42:14;;;;;;;28.88;22.67;;;;;;;;;;5359494;26;20064;-39
2024/04/12 10:44:41;;;;;;;30.58;22.88;;;;;;;;;;5369644;26;19989;-38
2024/04/12 10:47:12;;;;;;;26.98;22.63;;;;;;;;;;5359331;26;19985;-42
2024/04/12 10:49:43;;;;;;;27.65;23.45;;;;;;;;;;5359690;26;19988;-39
2024/04/12 10:52:13;;;;;;;33.85;23.02;;;;;;;;;;5361345;26;20113;-36
2024/04/12 10:54:43;;;;;;;30.83;22.83;;;;;;;;;;5362795;26;20066;-36
2024/04/12 10:57:11;;;;;;;25.13;22.52;;;;;;;;;;5362467;26;19989;-38
2024/04/12 10:59:42;;;;;;;29.08;23.45;;;;;;;;;;5373309;26;20097;-45
2024/04/12 11:02:10;;;;;;;25.42;22.92;;;;;;;;;;5387215;26;19999;-41
2024/04/12 11:07:23;;;;;;;26.95;24.05;;;;;;;;;;5362805;26;20040;-43
2024/04/12 11:09:57;;;;;;;33.03;24.25;;;;;;;;;;5362532;26;19996;-39
2024/04/12 11:12:45;;;;;;;31.55;25.25;;;;;;;;;;5389002;26;20197;-41
2024/04/12 11:31:57;;;;;;;45.47;40.53;;;;;;;;;;5397951;26;20204;-41
2024/04/12 11:34:24;;;;;;;37.50;33.50;;;;;;;;;;5394609;26;20015;-38
2024/04/12 11:36:54;;;;;;;36.38;32.13;;;;;;;;;;5395028;26;19996;-43
2024/04/12 11:39:25;;;;;;;32.78;29.30;;;;;;;;;;5394965;26;20020;-46
2024/04/12 11:41:55;;;;;;;31.33;28.13;;;;;;;;;;5395446;26;20012;-42
2024/04/12 11:44:22;;;;;;;31.85;27.27;;;;;;;;;;5395603;26;20007;-42
2024/04/12 11:46:49;;;;;;;30.45;27.20;;;;;;;;;;5395684;26;20240;-43
2024/04/12 11:49:25;;;;;;;32.17;26.23;;;;;;;;;;5390521;26;20003;-46
2024/04/12 11:52:03;;;;;;;34.40;26.70;;;;;;;;;;5374801;26;19988;-43
2024/04/12 11:54:30;;;;;;;30.13;25.63;;;;;;;;;;5391833;26;19999;-44
2024/04/12 11:57:00;;;;;;;28.45;25.42;;;;;;;;;;5395661;26;20149;-49
2024/04/12 11:59:31;;;;;;;28.38;25.27;;;;;;;;;;5381021;26;20086;-50
2024/04/12 12:02:01;;;;;;;31.08;25.23;;;;;;;;;;5361557;26;20004;-53
2024/04/12 12:04:28;;;;;;;27.30;24.40;;;;;;;;;;5361074;26;20012;-42
2024/04/12 12:06:55;;;;;;;27.05;24.02;;;;;;;;;;5361813;26;19996;-36
2024/04/12 12:09:22;;;;;;;29.92;23.00;;;;;;;;;;5361914;26;19992;-38
2024/04/12 12:11:49;;;;;;;27.35;23.52;;;;;;;;;;5361987;26;19985;-41
2024/04/12 12:14:16;;;;;;;26.63;23.85;;;;;;;;;;5361721;26;20036;-37
2024/04/12 12:16:43;;;;;;;25.88;23.15;;;;;;;;;;5361557;26;20025;-38
2024/04/12 12:19:10;;;;;;;27.27;23.13;;;;;;;;;;5361684;26;19993;-37
2024/04/12 12:21:36;;;;;;;27.23;23.27;;;;;;;;;;5361610;26;19985;-45
2024/04/12 12:24:05;;;;;;;26.73;23.92;;;;;;;;;;5361880;26;19985;-44
2024/04/12 12:26:32;;;;;;;27.40;22.90;;;;;;;;;;5361690;26;19985;-38
2024/04/12 12:28:59;;;;;;;24.75;22.35;;;;;;;;;;5361762;26;20007;-42
2024/04/12 12:31:26;;;;;;;26.20;23.60;;;;;;;;;;5361636;26;19985;-45
2024/04/12 12:33:53;;;;;;;26.15;23.40;;;;;;;;;;5361917;26;20165;-36
2024/04/12 12:36:21;;;;;;;25.77;23.17;;;;;;;;;;5362033;26;20021;-36
2024/04/12 12:38:48;;;;;;;27.00;23.63;;;;;;;;;;5361614;26;19993;-38
2024/04/12 12:41:17;;;;;;;27.35;23.95;;;;;;;;;;5374217;26;20011;-43
2024/04/12 12:43:44;;;;;;;27.63;23.70;;;;;;;;;;5392935;26;20016;-47
2024/04/12 12:46:15;;;;;;;30.75;24.35;;;;;;;;;;5393643;26;20000;-41
2024/04/12 12:48:42;;;;;;;26.88;23.92;;;;;;;;;;5396667;26;19995;-38
2024/04/12 12:51:09;;;;;;;33.10;24.40;;;;;;;;;;5384141;26;19996;-40
2024/04/12 12:53:38;;;;;;;25.98;23.23;;;;;;;;;;5361344;26;19999;-45
2024/04/12 12:56:08;;;;;;;27.92;24.45;;;;;;;;;;5361086;26;20004;-45
2024/04/12 12:58:37;;;;;;;30.52;24.60;;;;;;;;;;5370285;26;20029;-39
2024/04/12 13:01:07;;;;;;;28.00;25.17;;;;;;;;;;5387541;26;20100;-40
2024/04/12 13:03:36;;;;;;;26.45;23.90;;;;;;;;;;5385145;26;19992;-40
2024/04/12 13:06:06;;;;;;;30.42;24.65;;;;;;;;;;5386746;26;19997;-39
2024/04/12 13:08:34;;;;;;;27.33;24.40;;;;;;;;;;5395374;26;19985;-40
2024/04/12 13:11:01;;;;;;;27.35;24.60;;;;;;;;;;5380484;26;20046;-41
2024/04/12 13:13:27;;;;;;;28.73;25.83;;;;;;;;;;5396020;26;19991;-44
2024/04/12 13:15:54;;;;;;;28.63;24.40;;;;;;;;;;5387603;26;19995;-39
2024/04/12 13:18:24;;;;;;;31.25;28.13;;;;;;;;;;5385329;26;20011;-43
2024/04/12 13:20:54;;;;;;;31.10;27.92;;;;;;;;;;5389088;26;19984;-40
2024/04/12 13:23:29;;;;;;;34.78;29.27;;;;;;;;;;5389359;26;20004;-40
2024/04/12 13:25:56;;;;;;;31.33;28.23;;;;;;;;;;5389085;26;19993;-42
2024/04/12 13:28:23;;;;;;;41.90;29.48;;;;;;;;;;5388872;26;20016;-36
2024/04/12 13:30:49;;;;;;;87.70;35.90;;;;;;;;;;5395933;26;19991;-37
2024/04/12 13:33:16;;;;;;;53.78;32.28;;;;;;;;;;5373188;26;20064;-38
2024/04/12 13:35:42;;;;;;;72.10;32.63;;;;;;;;;;5392545;26;20055;-44
2024/04/12 13:38:12;;;;;;;139.90;37.67;;;;;;;;;;5379744;26;20013;-44
2024/04/12 13:40:42;;;;;;;55.05;30.05;;;;;;;;;;5384991;26;19999;-40
2024/04/12 13:43:13;;;;;;;49.88;30.95;;;;;;;;;;5383142;26;19990;-43
2024/04/12 13:51:13;;;;;;;50.08;32.78;;;;;;;;;;5395413;26;19991;-37
2024/04/12 13:53:43;;;;;;;40.88;32.47;;;;;;;;;;5381913;26;19995;-41
2024/04/12 13:56:26;;;;;;;39.20;32.88;;;;;;;;;;5372693;26;19992;-46
2024/04/12 13:58:58;;;;;;;;;;;;;;;;;;5384483;26;20140;-39
2024/04/12 14:01:25;;;;;;;41.90;34.50;;;;;;;;;;5383226;26;19921;-43
2024/04/12 14:03:58;;;;;;;43.88;35.92;;;;;;;;;;5368495;26;20016;-40
2024/04/12 14:06:25;;;;;;;40.10;36.17;;;;;;;;;;5380077;26;20008;-39
2024/04/12 14:08:52;;;;;;;38.45;34.40;;;;;;;;;;5393005;26;19997;-41
2024/04/12 14:11:19;;;;;;;40.15;33.45;;;;;;;;;;5380527;26;20001;-43
2024/04/12 14:13:46;;;;;;;39.15;35.05;;;;;;;;;;5387821;26;20101;-43
2024/04/12 14:16:16;;;;;;;47.75;39.58;;;;;;;;;;5395037;26;20085;-42
2024/04/12 14:18:50;;;;;;;42.97;38.60;;;;;;;;;;5384973;26;20008;-42
2024/04/12 14:21:17;;;;;;;44.88;39.60;;;;;;;;;;5394905;26;19995;-41
2024/04/12 14:23:44;;;;;;;55.15;41.38;;;;;;;;;;5377975;26;19996;-43
2024/04/12 14:26:11;;;;;;;111.80;47.30;;;;;;;;;;5395840;26;19992;-40
2024/04/12 14:28:38;;;;;;;74.03;44.20;;;;;;;;;;5381151;26;19993;-42
2024/04/12 14:31:05;;;;;;;63.03;43.65;;;;;;;;;;5386407;26;20042;-47
2024/04/12 14:33:32;;;;;;;65.97;43.17;;;;;;;;;;5380302;26;20055;-40
2024/04/12 14:36:02;;;;;;;52.17;43.55;;;;;;;;;;5398357;26;19988;-40
2024/04/12 14:38:29;;;;;;;50.22;44.83;;;;;;;;;;5380258;26;20261;-42
2024/04/12 14:41:03;;;;;;;50.83;45.00;;;;;;;;;;5398435;26;20004;-40
2024/04/12 14:43:33;;;;;;;49.65;43.92;;;;;;;;;;5377177;26;20055;-42
2024/04/12 14:46:06;;;;;;;51.20;44.47;;;;;;;;;;5398282;26;20059;-50
2024/04/12 14:48:44;;;;;;;48.80;43.42;;;;;;;;;;5393669;26;20020;-48
2024/04/12 14:51:13;;;;;;;49.80;44.70;;;;;;;;;;5363126;26;20001;-44
2024/04/12 14:53:39;;;;;;;54.25;45.45;;;;;;;;;;5363584;26;19989;-42
2024/04/12 14:56:06;;;;;;;51.35;44.90;;;;;;;;;;5397901;26;19988;-46
2024/04/12 14:58:34;;;;;;;50.88;43.65;;;;;;;;;;5378518;26;20000;-47
2024/04/12 15:01:00;;;;;;;47.20;42.22;;;;;;;;;;5394488;26;19993;-40
2024/04/12 16:12:19;;;;;;;45.60;40.70;;;;;;;;;;5457133;26;20025;-36
2024/04/12 16:14:46;;;;;;;47.88;42.33;;;;;;;;;;5413055;26;20172;-40
2024/04/12 16:17:14;;;;;;;46.40;41.63;;;;;;;;;;5424242;26;19999;-36
2024/04/12 16:19:41;;;;;;;46.13;40.95;;;;;;;;;;5403574;26;20060;-37
2024/04/12 16:22:08;;;;;;;45.58;40.88;;;;;;;;;;5431493;26;19988;-45
2024/04/12 16:24:35;;;;;;;46.58;41.40;;;;;;;;;;5431940;26;20003;-36
2024/04/12 16:27:02;;;;;;;46.97;42.20;;;;;;;;;;5430599;26;20085;-43
2024/04/12 16:29:29;;;;;;;47.03;42.35;;;;;;;;;;5427500;26;20113;-37
2024/04/12 16:31:55;;;;;;;45.33;40.42;;;;;;;;;;5409559;26;20025;-37
2024/04/12 16:34:22;;;;;;;46.05;41.20;;;;;;;;;;5418167;26;19992;-35
2024/04/12 16:36:49;;;;;;;47.15;42.75;;;;;;;;;;5430884;26;19999;-35
2024/04/12 16:39:16;;;;;;;49.92;45.08;;;;;;;;;;5420157;26;20016;-43
2024/04/12 16:41:43;;;;;;;49.17;44.10;;;;;;;;;;5411785;26;19984;-42
2024/04/12 16:44:13;;;;;;;50.03;45.30;;;;;;;;;;5424082;26;20006;-38
2024/04/12 16:46:43;;;;;;;49.10;44.25;;;;;;;;;;5431883;26;20003;-44
2024/04/12 16:49:09;;;;;;;49.35;44.50;;;;;;;;;;5431360;26;20002;-39
2024/04/12 16:51:36;;;;;;;49.33;44.17;;;;;;;;;;5428336;26;20012;-41
2024/04/12 16:54:03;;;;;;;47.92;43.40;;;;;;;;;;5419232;26;19992;-42
2024/04/12 16:56:30;;;;;;;49.33;44.63;;;;;;;;;;5440108;26;19994;-35
2024/04/12 16:58:58;;;;;;;48.92;44.17;;;;;;;;;;5464764;26;20039;-40
2024/04/12 17:01:25;;;;;;;47.08;42.40;;;;;;;;;;5465897;26;20119;-43
2024/04/12 17:03:52;;;;;;;47.45;42.42;;;;;;;;;;5464119;26;19998;-37
2024/04/12 17:06:19;;;;;;;47.67;42.90;;;;;;;;;;5466791;26;20006;-38
2024/04/12 17:08:47;;;;;;;46.67;42.08;;;;;;;;;;5467279;26;19991;-41
2024/04/12 17:11:14;;;;;;;48.70;42.67;;;;;;;;;;5467152;26;20001;-41
2024/04/12 17:13:40;;;;;;;62.78;42.42;;;;;;;;;;5464767;26;19997;-43
2024/04/12 17:16:08;;;;;;;58.38;41.38;;;;;;;;;;5464331;26;19991;-44
2024/04/12 17:18:35;;;;;;;50.10;41.00;;;;;;;;;;5464908;26;19991;-40